Wartrace, Illinois
Current Conditions -  °F | °C
As of 3:15 PM on Tuesday 21 Oct 2014 (Local Time) from KM30 Reporting Station
Clear Clear  
Wind Chill: 70°   Ceiling: Unl
Heat Index: 70°   Visibility: 10mi
Dew Point: 46°   Wind: 10mph
Humidity: 42%   Direction: 330°NNW
Pressure: 30.06"   Gusts: NA
Location:  37.3798°N, 88.7652°W
Report Text: KM30 212015Z AUTO 33009KT 10SM CLR 21/08 A3006 RMK AO2 T02130079
Loading
Personal Weather Stations






























Interactive Weather Map
Tropical Storm Tracking
New forecast layout! Learn more

10-Day Weather Forecast

Advertisements
Track Severe Weather on mobile